sensor_id;sensor_type;location;lat;lon;timestamp;temperature;humidity
11089;DHT22;5598;48.648;8.908;2023-04-25T00:01:55;7.40;99.90
11089;DHT22;5598;48.648;8.908;2023-04-25T00:04:22;7.40;99.90
11089;DHT22;5598;48.648;8.908;2023-04-25T00:06:49;7.30;99.90
11089;DHT22;5598;48.648;8.908;2023-04-25T00:09:15;7.20;99.90
11089;DHT22;5598;48.648;8.908;2023-04-25T00:11:42;7.10;99.90
11089;DHT22;5598;48.648;8.908;2023-04-25T00:14:09;7.10;99.90
11089;DHT22;5598;48.648;8.908;2023-04-25T00:16:37;7.10;99.90
11089;DHT22;5598;48.648;8.908;2023-04-25T00:19:04;7.00;99.90
11089;DHT22;5598;48.648;8.908;2023-04-25T00:21:31;7.00;99.90
11089;DHT22;5598;48.648;8.908;2023-04-25T00:23:59;7.00;99.90
11089;DHT22;5598;48.648;8.908;2023-04-25T00:26:26;7.00;99.90
11089;DHT22;5598;48.648;8.908;2023-04-25T00:28:53;6.90;99.90
11089;DHT22;5598;48.648;8.908;2023-04-25T00:31:20;7.00;99.90
11089;DHT22;5598;48.648;8.908;2023-04-25T00:33:48;7.00;99.90
11089;DHT22;5598;48.648;8.908;2023-04-25T00:36:15;7.00;99.90
11089;DHT22;5598;48.648;8.908;2023-04-25T00:38:42;6.90;99.90
11089;DHT22;5598;48.648;8.908;2023-04-25T00:41:09;6.90;99.90
11089;DHT22;5598;48.648;8.908;2023-04-25T00:43:37;6.90;99.90
11089;DHT22;5598;48.648;8.908;2023-04-25T00:46:05;6.80;99.90
11089;DHT22;5598;48.648;8.908;2023-04-25T00:48:31;6.80;99.90
11089;DHT22;5598;48.648;8.908;2023-04-25T00:51:00;6.90;99.90
11089;DHT22;5598;48.648;8.908;2023-04-25T00:53:28;7.00;99.90
11089;DHT22;5598;48.648;8.908;2023-04-25T00:55:55;7.10;99.90
11089;DHT22;5598;48.648;8.908;2023-04-25T00:58:22;7.10;99.90
11089;DHT22;5598;48.648;8.908;2023-04-25T01:00:50;7.20;99.90
11089;DHT22;5598;48.648;8.908;2023-04-25T01:03:17;7.30;99.90
11089;DHT22;5598;48.648;8.908;2023-04-25T01:05:46;7.20;99.90
11089;DHT22;5598;48.648;8.908;2023-04-25T01:08:14;7.10;99.90
11089;DHT22;5598;48.648;8.908;2023-04-25T01:10:41;6.90;99.90
11089;DHT22;5598;48.648;8.908;2023-04-25T01:13:08;6.70;99.90
11089;DHT22;5598;48.648;8.908;2023-04-25T01:15:35;6.60;99.90
11089;DHT22;5598;48.648;8.908;2023-04-25T01:18:03;6.50;99.90
11089;DHT22;5598;48.648;8.908;2023-04-25T01:20:32;6.40;99.90
11089;DHT22;5598;48.648;8.908;2023-04-25T01:23:01;6.30;99.90
11089;DHT22;5598;48.648;8.908;2023-04-25T01:25:29;6.30;99.90
11089;DHT22;5598;48.648;8.908;2023-04-25T01:27:57;6.20;99.90
11089;DHT22;5598;48.648;8.908;2023-04-25T01:30:25;6.20;99.90
11089;DHT22;5598;48.648;8.908;2023-04-25T01:32:54;6.20;99.90
11089;DHT22;5598;48.648;8.908;2023-04-25T01:35:21;6.30;99.90
11089;DHT22;5598;48.648;8.908;2023-04-25T01:37:49;6.30;99.90
11089;DHT22;5598;48.648;8.908;2023-04-25T01:40:18;6.30;99.90
11089;DHT22;5598;48.648;8.908;2023-04-25T01:42:45;6.30;99.90
11089;DHT22;5598;48.648;8.908;2023-04-25T01:45:12;6.30;99.90
11089;DHT22;5598;48.648;8.908;2023-04-25T01:47:39;6.30;99.90
11089;DHT22;5598;48.648;8.908;2023-04-25T01:50:09;6.30;99.90
11089;DHT22;5598;48.648;8.908;2023-04-25T01:52:37;6.30;99.90
11089;DHT22;5598;48.648;8.908;2023-04-25T01:55:05;6.30;99.90
11089;DHT22;5598;48.648;8.908;2023-04-25T01:57:33;6.30;99.90
11089;DHT22;5598;48.648;8.908;2023-04-25T02:00:03;6.40;99.90
11089;DHT22;5598;48.648;8.908;2023-04-25T02:02:30;6.30;99.90
11089;DHT22;5598;48.648;8.908;2023-04-25T02:04:57;6.30;99.90
11089;DHT22;5598;48.648;8.908;2023-04-25T02:07:23;6.20;99.90
11089;DHT22;5598;48.648;8.908;2023-04-25T02:09:50;6.10;99.90
11089;DHT22;5598;48.648;8.908;2023-04-25T02:12:17;6.00;99.90
11089;DHT22;5598;48.648;8.908;2023-04-25T02:14:45;5.90;99.90
11089;DHT22;5598;48.648;8.908;2023-04-25T02:17:12;5.90;99.90
11089;DHT22;5598;48.648;8.908;2023-04-25T02:19:41;5.90;99.90
11089;DHT22;5598;48.648;8.908;2023-04-25T02:22:08;5.80;99.90
11089;DHT22;5598;48.648;8.908;2023-04-25T02:24:36;5.80;99.90
11089;DHT22;5598;48.648;8.908;2023-04-25T02:27:03;5.70;99.90
11089;DHT22;5598;48.648;8.908;2023-04-25T02:29:30;5.70;99.90
11089;DHT22;5598;48.648;8.908;2023-04-25T02:31:58;5.70;99.90
11089;DHT22;5598;48.648;8.908;2023-04-25T02:34:25;5.60;99.90
11089;DHT22;5598;48.648;8.908;2023-04-25T02:36:51;5.60;99.90
11089;DHT22;5598;48.648;8.908;2023-04-25T02:39:18;5.60;99.90
11089;DHT22;5598;48.648;8.908;2023-04-25T02:41:47;5.60;99.90
11089;DHT22;5598;48.648;8.908;2023-04-25T02:44:14;5.60;99.90
11089;DHT22;5598;48.648;8.908;2023-04-25T02:46:41;5.70;99.90
11089;DHT22;5598;48.648;8.908;2023-04-25T02:49:09;5.70;99.90
11089;DHT22;5598;48.648;8.908;2023-04-25T02:51:35;5.70;99.90
11089;DHT22;5598;48.648;8.908;2023-04-25T02:54:02;5.60;99.90
11089;DHT22;5598;48.648;8.908;2023-04-25T02:56:29;5.60;99.90
11089;DHT22;5598;48.648;8.908;2023-04-25T02:58:56;5.60;99.90
11089;DHT22;5598;48.648;8.908;2023-04-25T03:01:23;5.60;99.90
11089;DHT22;5598;48.648;8.908;2023-04-25T03:03:50;5.60;99.90
11089;DHT22;5598;48.648;8.908;2023-04-25T03:06:18;5.70;99.90
11089;DHT22;5598;48.648;8.908;2023-04-25T03:08:44;5.70;99.90
11089;DHT22;5598;48.648;8.908;2023-04-25T03:11:11;5.80;99.90
11089;DHT22;5598;48.648;8.908;2023-04-25T03:13:38;5.70;99.90
11089;DHT22;5598;48.648;8.908;2023-04-25T03:16:05;5.70;99.90
11089;DHT22;5598;48.648;8.908;2023-04-25T03:18:32;5.70;99.90
11089;DHT22;5598;48.648;8.908;2023-04-25T03:20:59;5.70;99.90
11089;DHT22;5598;48.648;8.908;2023-04-25T03:23:27;5.70;99.90
11089;DHT22;5598;48.648;8.908;2023-04-25T03:25:54;5.80;99.90
11089;DHT22;5598;48.648;8.908;2023-04-25T03:28:21;5.80;99.90
11089;DHT22;5598;48.648;8.908;2023-04-25T03:30:48;5.80;99.90
11089;DHT22;5598;48.648;8.908;2023-04-25T03:33:14;5.70;99.90
11089;DHT22;5598;48.648;8.908;2023-04-25T03:35:41;5.70;99.90
11089;DHT22;5598;48.648;8.908;2023-04-25T03:38:09;5.60;99.90
11089;DHT22;5598;48.648;8.908;2023-04-25T03:40:37;5.50;99.90
11089;DHT22;5598;48.648;8.908;2023-04-25T03:43:03;5.40;99.90
11089;DHT22;5598;48.648;8.908;2023-04-25T03:45:30;5.40;99.90
11089;DHT22;5598;48.648;8.908;2023-04-25T03:47:57;5.30;99.90
11089;DHT22;5598;48.648;8.908;2023-04-25T03:50:24;5.20;99.90
11089;DHT22;5598;48.648;8.908;2023-04-25T03:52:51;5.10;99.90
11089;DHT22;5598;48.648;8.908;2023-04-25T03:55:18;4.90;99.90
11089;DHT22;5598;48.648;8.908;2023-04-25T03:57:46;4.90;99.90
11089;DHT22;5598;48.648;8.908;2023-04-25T04:00:14;4.80;99.90
11089;DHT22;5598;48.648;8.908;2023-04-25T04:02:41;4.80;99.90
11089;DHT22;5598;48.648;8.908;2023-04-25T04:05:08;4.70;99.90
11089;DHT22;5598;48.648;8.908;2023-04-25T04:07:35;4.60;99.90
11089;DHT22;5598;48.648;8.908;2023-04-25T04:10:06;4.50;99.90
11089;DHT22;5598;48.648;8.908;2023-04-25T04:12:33;4.50;99.90
11089;DHT22;5598;48.648;8.908;2023-04-25T04:15:01;4.40;99.90
11089;DHT22;5598;48.648;8.908;2023-04-25T04:17:29;4.30;99.90
11089;DHT22;5598;48.648;8.908;2023-04-25T04:19:56;4.30;99.90
11089;DHT22;5598;48.648;8.908;2023-04-25T04:22:23;4.40;99.90
11089;DHT22;5598;48.648;8.908;2023-04-25T04:24:50;4.30;99.90
11089;DHT22;5598;48.648;8.908;2023-04-25T04:27:17;4.20;99.90
11089;DHT22;5598;48.648;8.908;2023-04-25T04:29:44;4.20;99.90
11089;DHT22;5598;48.648;8.908;2023-04-25T04:32:13;4.30;99.90
11089;DHT22;5598;48.648;8.908;2023-04-25T04:34:40;4.50;99.90
11089;DHT22;5598;48.648;8.908;2023-04-25T04:37:07;4.70;99.90
11089;DHT22;5598;48.648;8.908;2023-04-25T04:39:35;4.90;99.90
11089;DHT22;5598;48.648;8.908;2023-04-25T04:42:02;5.00;99.90
11089;DHT22;5598;48.648;8.908;2023-04-25T04:44:30;5.20;99.90
11089;DHT22;5598;48.648;8.908;2023-04-25T04:46:58;5.30;99.90
11089;DHT22;5598;48.648;8.908;2023-04-25T04:49:28;5.40;99.90
11089;DHT22;5598;48.648;8.908;2023-04-25T04:51:55;5.40;99.90
11089;DHT22;5598;48.648;8.908;2023-04-25T04:54:22;5.40;99.90
11089;DHT22;5598;48.648;8.908;2023-04-25T04:56:49;5.40;99.90
11089;DHT22;5598;48.648;8.908;2023-04-25T04:59:17;5.50;99.90
11089;DHT22;5598;48.648;8.908;2023-04-25T05:01:44;5.60;99.90
11089;DHT22;5598;48.648;8.908;2023-04-25T05:04:12;5.60;99.90
11089;DHT22;5598;48.648;8.908;2023-04-25T05:06:40;5.70;99.90
11089;DHT22;5598;48.648;8.908;2023-04-25T05:09:07;5.70;99.90
11089;DHT22;5598;48.648;8.908;2023-04-25T05:11:33;5.70;99.90
11089;DHT22;5598;48.648;8.908;2023-04-25T05:14:00;5.80;99.90
11089;DHT22;5598;48.648;8.908;2023-04-25T05:16:27;5.80;99.90
11089;DHT22;5598;48.648;8.908;2023-04-25T05:18:54;5.80;99.90
11089;DHT22;5598;48.648;8.908;2023-04-25T05:21:21;5.80;99.90
11089;DHT22;5598;48.648;8.908;2023-04-25T05:23:49;5.90;99.90
11089;DHT22;5598;48.648;8.908;2023-04-25T05:26:16;6.00;99.90
11089;DHT22;5598;48.648;8.908;2023-04-25T05:28:43;6.10;99.90
11089;DHT22;5598;48.648;8.908;2023-04-25T05:31:10;6.20;99.90
11089;DHT22;5598;48.648;8.908;2023-04-25T05:33:37;6.20;99.90
11089;DHT22;5598;48.648;8.908;2023-04-25T05:36:04;6.30;99.90
11089;DHT22;5598;48.648;8.908;2023-04-25T05:38:31;6.40;99.90
11089;DHT22;5598;48.648;8.908;2023-04-25T05:41:00;6.50;99.90
11089;DHT22;5598;48.648;8.908;2023-04-25T05:43:26;6.60;99.90
11089;DHT22;5598;48.648;8.908;2023-04-25T05:45:53;6.70;99.90
11089;DHT22;5598;48.648;8.908;2023-04-25T05:48:20;6.70;99.90
11089;DHT22;5598;48.648;8.908;2023-04-25T05:50:47;6.80;99.90
11089;DHT22;5598;48.648;8.908;2023-04-25T05:53:14;6.90;99.90
11089;DHT22;5598;48.648;8.908;2023-04-25T05:55:40;7.00;99.90
11089;DHT22;5598;48.648;8.908;2023-04-25T05:58:09;7.20;99.90
11089;DHT22;5598;48.648;8.908;2023-04-25T06:00:35;7.30;99.90
11089;DHT22;5598;48.648;8.908;2023-04-25T06:03:03;7.50;99.90
11089;DHT22;5598;48.648;8.908;2023-04-25T06:05:29;7.60;99.90
11089;DHT22;5598;48.648;8.908;2023-04-25T06:07:56;7.80;99.90
11089;DHT22;5598;48.648;8.908;2023-04-25T06:10:23;7.80;99.90
11089;DHT22;5598;48.648;8.908;2023-04-25T06:12:50;7.90;99.90
11089;DHT22;5598;48.648;8.908;2023-04-25T06:15:19;7.90;99.90
11089;DHT22;5598;48.648;8.908;2023-04-25T06:17:45;8.00;99.90
11089;DHT22;5598;48.648;8.908;2023-04-25T06:20:12;8.00;99.90
11089;DHT22;5598;48.648;8.908;2023-04-25T06:22:39;8.00;99.90
11089;DHT22;5598;48.648;8.908;2023-04-25T06:25:06;8.00;99.90
11089;DHT22;5598;48.648;8.908;2023-04-25T06:27:33;8.00;99.90
11089;DHT22;5598;48.648;8.908;2023-04-25T06:30:00;8.00;99.90
11089;DHT22;5598;48.648;8.908;2023-04-25T06:32:29;8.00;99.90
11089;DHT22;5598;48.648;8.908;2023-04-25T06:34:55;7.90;99.90
11089;DHT22;5598;48.648;8.908;2023-04-25T06:37:23;7.80;99.90
11089;DHT22;5598;48.648;8.908;2023-04-25T06:39:50;7.80;99.90
11089;DHT22;5598;48.648;8.908;2023-04-25T06:42:17;7.70;99.90
11089;DHT22;5598;48.648;8.908;2023-04-25T06:44:44;7.70;99.90
11089;DHT22;5598;48.648;8.908;2023-04-25T06:47:11;7.60;99.90
11089;DHT22;5598;48.648;8.908;2023-04-25T06:49:39;7.60;99.90
11089;DHT22;5598;48.648;8.908;2023-04-25T06:52:06;7.60;99.90
11089;DHT22;5598;48.648;8.908;2023-04-25T06:54:33;7.70;99.90
11089;DHT22;5598;48.648;8.908;2023-04-25T06:57:00;7.60;99.90
11089;DHT22;5598;48.648;8.908;2023-04-25T06:59:27;7.60;99.90
11089;DHT22;5598;48.648;8.908;2023-04-25T07:01:54;7.60;99.90
11089;DHT22;5598;48.648;8.908;2023-04-25T07:04:21;7.60;99.90
11089;DHT22;5598;48.648;8.908;2023-04-25T07:06:49;7.60;99.90
11089;DHT22;5598;48.648;8.908;2023-04-25T07:09:16;7.70;99.90
11089;DHT22;5598;48.648;8.908;2023-04-25T07:11:43;7.60;99.90
11089;DHT22;5598;48.648;8.908;2023-04-25T07:14:09;7.70;99.90
11089;DHT22;5598;48.648;8.908;2023-04-25T07:16:36;7.70;99.90
11089;DHT22;5598;48.648;8.908;2023-04-25T07:19:03;7.70;99.90
11089;DHT22;5598;48.648;8.908;2023-04-25T07:21:30;7.70;99.90
11089;DHT22;5598;48.648;8.908;2023-04-25T07:23:59;7.80;99.90
11089;DHT22;5598;48.648;8.908;2023-04-25T07:26:26;7.90;99.90
11089;DHT22;5598;48.648;8.908;2023-04-25T07:28:53;7.90;99.90
11089;DHT22;5598;48.648;8.908;2023-04-25T07:31:20;7.90;99.90
11089;DHT22;5598;48.648;8.908;2023-04-25T07:33:47;7.90;99.90
11089;DHT22;5598;48.648;8.908;2023-04-25T07:36:14;8.00;99.90
11089;DHT22;5598;48.648;8.908;2023-04-25T07:38:41;8.00;99.90
11089;DHT22;5598;48.648;8.908;2023-04-25T07:41:09;8.00;99.90
11089;DHT22;5598;48.648;8.908;2023-04-25T07:43:36;8.10;99.90
11089;DHT22;5598;48.648;8.908;2023-04-25T07:46:04;8.00;99.90
11089;DHT22;5598;48.648;8.908;2023-04-25T07:48:31;7.90;99.90
11089;DHT22;5598;48.648;8.908;2023-04-25T07:50:58;7.90;99.90
11089;DHT22;5598;48.648;8.908;2023-04-25T07:53:25;7.80;99.90
11089;DHT22;5598;48.648;8.908;2023-04-25T07:55:52;7.80;99.90
11089;DHT22;5598;48.648;8.908;2023-04-25T07:58:20;7.80;99.90
11089;DHT22;5598;48.648;8.908;2023-04-25T08:00:48;7.80;99.90
11089;DHT22;5598;48.648;8.908;2023-04-25T08:03:15;7.80;99.90
11089;DHT22;5598;48.648;8.908;2023-04-25T08:05:42;7.80;99.90
11089;DHT22;5598;48.648;8.908;2023-04-25T08:08:08;7.70;99.90
11089;DHT22;5598;48.648;8.908;2023-04-25T08:10:35;7.60;99.90
11089;DHT22;5598;48.648;8.908;2023-04-25T08:13:02;7.50;99.90
11089;DHT22;5598;48.648;8.908;2023-04-25T08:15:30;7.50;99.90
11089;DHT22;5598;48.648;8.908;2023-04-25T08:17:57;7.30;99.90
11089;DHT22;5598;48.648;8.908;2023-04-25T08:20:25;7.00;99.90
11089;DHT22;5598;48.648;8.908;2023-04-25T08:22:51;6.80;99.90
11089;DHT22;5598;48.648;8.908;2023-04-25T08:25:18;6.70;99.90
11089;DHT22;5598;48.648;8.908;2023-04-25T08:27:45;6.70;99.90
11089;DHT22;5598;48.648;8.908;2023-04-25T08:30:12;6.70;99.90
11089;DHT22;5598;48.648;8.908;2023-04-25T08:32:41;6.80;99.90
11089;DHT22;5598;48.648;8.908;2023-04-25T08:35:08;6.80;99.90
11089;DHT22;5598;48.648;8.908;2023-04-25T08:37:35;6.80;99.90
11089;DHT22;5598;48.648;8.908;2023-04-25T08:40:03;6.60;99.90
11089;DHT22;5598;48.648;8.908;2023-04-25T08:42:33;6.40;99.90
11089;DHT22;5598;48.648;8.908;2023-04-25T08:45:01;6.30;99.90
11089;DHT22;5598;48.648;8.908;2023-04-25T08:47:30;6.20;99.90
11089;DHT22;5598;48.648;8.908;2023-04-25T08:50:02;6.20;99.90
11089;DHT22;5598;48.648;8.908;2023-04-25T08:52:35;6.10;99.90
11089;DHT22;5598;48.648;8.908;2023-04-25T08:55:03;6.10;99.90
11089;DHT22;5598;48.648;8.908;2023-04-25T08:57:31;5.80;99.90
11089;DHT22;5598;48.648;8.908;2023-04-25T08:59:58;5.60;99.90
11089;DHT22;5598;48.648;8.908;2023-04-25T09:02:26;5.50;99.90
11089;DHT22;5598;48.648;8.908;2023-04-25T09:04:54;5.50;99.90
11089;DHT22;5598;48.648;8.908;2023-04-25T09:07:23;5.40;99.90
11089;DHT22;5598;48.648;8.908;2023-04-25T09:09:51;5.40;99.90
11089;DHT22;5598;48.648;8.908;2023-04-25T09:12:18;5.50;99.90
11089;DHT22;5598;48.648;8.908;2023-04-25T09:15:01;5.50;99.90
11089;DHT22;5598;48.648;8.908;2023-04-25T09:17:29;5.70;99.90
11089;DHT22;5598;48.648;8.908;2023-04-25T09:20:05;5.70;99.90
11089;DHT22;5598;48.648;8.908;2023-04-25T09:22:34;5.70;99.90
11089;DHT22;5598;48.648;8.908;2023-04-25T09:25:02;5.60;99.90
11089;DHT22;5598;48.648;8.908;2023-04-25T09:27:30;5.40;99.90
11089;DHT22;5598;48.648;8.908;2023-04-25T09:29:57;5.30;99.90
11089;DHT22;5598;48.648;8.908;2023-04-25T09:32:25;5.30;99.90
11089;DHT22;5598;48.648;8.908;2023-04-25T09:34:53;5.30;99.90
11089;DHT22;5598;48.648;8.908;2023-04-25T09:37:22;5.20;99.90
11089;DHT22;5598;48.648;8.908;2023-04-25T09:39:52;5.20;99.90
11089;DHT22;5598;48.648;8.908;2023-04-25T09:42:22;5.30;99.90
11089;DHT22;5598;48.648;8.908;2023-04-25T09:44:51;5.20;99.90
11089;DHT22;5598;48.648;8.908;2023-04-25T09:47:19;5.00;99.90
11089;DHT22;5598;48.648;8.908;2023-04-25T09:49:47;5.00;99.90
11089;DHT22;5598;48.648;8.908;2023-04-25T09:52:15;4.80;99.90
11089;DHT22;5598;48.648;8.908;2023-04-25T09:54:43;5.00;99.90
11089;DHT22;5598;48.648;8.908;2023-04-25T09:57:13;5.00;99.90
11089;DHT22;5598;48.648;8.908;2023-04-25T09:59:44;5.20;99.90
11089;DHT22;5598;48.648;8.908;2023-04-25T10:02:12;5.20;99.90
11089;DHT22;5598;48.648;8.908;2023-04-25T10:04:41;5.20;99.90
11089;DHT22;5598;48.648;8.908;2023-04-25T10:07:08;5.10;99.90
11089;DHT22;5598;48.648;8.908;2023-04-25T10:09:37;5.20;99.90
11089;DHT22;5598;48.648;8.908;2023-04-25T10:12:05;5.10;99.90
11089;DHT22;5598;48.648;8.908;2023-04-25T10:14:34;5.10;99.90
11089;DHT22;5598;48.648;8.908;2023-04-25T10:17:01;4.90;99.90
11089;DHT22;5598;48.648;8.908;2023-04-25T10:19:28;4.80;99.90
11089;DHT22;5598;48.648;8.908;2023-04-25T10:22:02;4.90;99.90
11089;DHT22;5598;48.648;8.908;2023-04-25T10:24:30;5.00;99.90
11089;DHT22;5598;48.648;8.908;2023-04-25T10:26:57;5.10;99.90
11089;DHT22;5598;48.648;8.908;2023-04-25T10:29:25;5.30;99.90
11089;DHT22;5598;48.648;8.908;2023-04-25T10:31:54;5.60;99.90
11089;DHT22;5598;48.648;8.908;2023-04-25T10:34:25;5.60;99.90
11089;DHT22;5598;48.648;8.908;2023-04-25T10:37:03;5.60;99.90
11089;DHT22;5598;48.648;8.908;2023-04-25T10:39:30;5.50;99.90
11089;DHT22;5598;48.648;8.908;2023-04-25T10:42:01;5.50;99.90
11089;DHT22;5598;48.648;8.908;2023-04-25T10:44:29;5.60;99.90
11089;DHT22;5598;48.648;8.908;2023-04-25T10:47:00;5.70;99.90
11089;DHT22;5598;48.648;8.908;2023-04-25T10:49:30;5.90;99.90
11089;DHT22;5598;48.648;8.908;2023-04-25T10:52:14;5.80;99.90
11089;DHT22;5598;48.648;8.908;2023-04-25T10:54:42;5.50;99.90
11089;DHT22;5598;48.648;8.908;2023-04-25T10:57:31;5.50;99.90
11089;DHT22;5598;48.648;8.908;2023-04-25T11:00:07;5.40;99.90
11089;DHT22;5598;48.648;8.908;2023-04-25T11:02:45;5.50;99.90
11089;DHT22;5598;48.648;8.908;2023-04-25T11:05:20;5.70;99.90
11089;DHT22;5598;48.648;8.908;2023-04-25T11:07:50;5.80;99.90
11089;DHT22;5598;48.648;8.908;2023-04-25T11:10:18;5.80;99.90
11089;DHT22;5598;48.648;8.908;2023-04-25T11:12:45;6.10;99.90
11089;DHT22;5598;48.648;8.908;2023-04-25T11:15:13;6.30;99.90
11089;DHT22;5598;48.648;8.908;2023-04-25T11:17:40;6.50;99.90
11089;DHT22;5598;48.648;8.908;2023-04-25T11:20:09;6.50;99.90
11089;DHT22;5598;48.648;8.908;2023-04-25T11:22:37;6.30;99.90
11089;DHT22;5598;48.648;8.908;2023-04-25T11:25:06;6.50;99.90
11089;DHT22;5598;48.648;8.908;2023-04-25T11:27:33;6.70;99.90
11089;DHT22;5598;48.648;8.908;2023-04-25T11:30:11;6.70;99.90
11089;DHT22;5598;48.648;8.908;2023-04-25T11:32:39;6.60;99.90
11089;DHT22;5598;48.648;8.908;2023-04-25T11:35:08;6.60;99.90
11089;DHT22;5598;48.648;8.908;2023-04-25T11:37:35;6.70;99.90
11089;DHT22;5598;48.648;8.908;2023-04-25T11:40:02;6.90;99.90
11089;DHT22;5598;48.648;8.908;2023-04-25T11:42:32;7.10;99.90
11089;DHT22;5598;48.648;8.908;2023-04-25T11:44:59;7.10;99.90
11089;DHT22;5598;48.648;8.908;2023-04-25T11:47:29;7.00;99.90
11089;DHT22;5598;48.648;8.908;2023-04-25T11:49:58;7.00;99.90
11089;DHT22;5598;48.648;8.908;2023-04-25T11:52:35;7.00;99.90
11089;DHT22;5598;48.648;8.908;2023-04-25T11:55:04;7.10;99.90
11089;DHT22;5598;48.648;8.908;2023-04-25T11:57:32;7.10;99.90
11089;DHT22;5598;48.648;8.908;2023-04-25T12:00:06;7.10;99.90
11089;DHT22;5598;48.648;8.908;2023-04-25T12:02:35;7.10;99.90
11089;DHT22;5598;48.648;8.908;2023-04-25T12:05:02;7.20;99.90
11089;DHT22;5598;48.648;8.908;2023-04-25T12:07:31;7.30;99.90
11089;DHT22;5598;48.648;8.908;2023-04-25T12:09:58;7.40;99.90
11089;DHT22;5598;48.648;8.908;2023-04-25T12:12:27;7.60;99.90
11089;DHT22;5598;48.648;8.908;2023-04-25T12:14:54;7.80;99.90
11089;DHT22;5598;48.648;8.908;2023-04-25T12:17:22;7.80;99.90
11089;DHT22;5598;48.648;8.908;2023-04-25T12:19:49;7.90;99.90
11089;DHT22;5598;48.648;8.908;2023-04-25T12:22:20;7.90;99.90
11089;DHT22;5598;48.648;8.908;2023-04-25T12:24:49;7.90;99.90
11089;DHT22;5598;48.648;8.908;2023-04-25T12:27:16;8.00;99.90
11089;DHT22;5598;48.648;8.908;2023-04-25T12:29:51;8.00;99.90
11089;DHT22;5598;48.648;8.908;2023-04-25T12:32:17;7.90;99.90
11089;DHT22;5598;48.648;8.908;2023-04-25T12:34:44;8.00;99.90
11089;DHT22;5598;48.648;8.908;2023-04-25T12:37:11;7.90;99.90
11089;DHT22;5598;48.648;8.908;2023-04-25T12:39:38;8.00;99.90
11089;DHT22;5598;48.648;8.908;2023-04-25T12:42:07;8.00;99.90
11089;DHT22;5598;48.648;8.908;2023-04-25T12:44:37;8.00;99.90
11089;DHT22;5598;48.648;8.908;2023-04-25T12:47:04;8.10;99.90
11089;DHT22;5598;48.648;8.908;2023-04-25T12:49:31;8.20;99.90
11089;DHT22;5598;48.648;8.908;2023-04-25T12:51:58;8.30;99.90
11089;DHT22;5598;48.648;8.908;2023-04-25T12:54:25;8.40;99.90
11089;DHT22;5598;48.648;8.908;2023-04-25T12:56:52;8.60;99.90
11089;DHT22;5598;48.648;8.908;2023-04-25T12:59:20;8.90;99.90
11089;DHT22;5598;48.648;8.908;2023-04-25T13:01:47;9.20;99.90
11089;DHT22;5598;48.648;8.908;2023-04-25T13:04:14;9.70;99.90
11089;DHT22;5598;48.648;8.908;2023-04-25T13:06:41;10.00;99.90
11089;DHT22;5598;48.648;8.908;2023-04-25T13:09:08;10.20;99.90
11089;DHT22;5598;48.648;8.908;2023-04-25T13:11:35;10.30;99.90
11089;DHT22;5598;48.648;8.908;2023-04-25T13:14:01;10.50;99.90
11089;DHT22;5598;48.648;8.908;2023-04-25T13:16:30;10.60;99.90
11089;DHT22;5598;48.648;8.908;2023-04-25T13:18:57;10.60;99.90
11089;DHT22;5598;48.648;8.908;2023-04-25T13:21:24;10.40;99.90
11089;DHT22;5598;48.648;8.908;2023-04-25T13:23:51;9.90;99.90
11089;DHT22;5598;48.648;8.908;2023-04-25T13:26:18;9.70;99.90
11089;DHT22;5598;48.648;8.908;2023-04-25T13:28:45;10.10;99.90
11089;DHT22;5598;48.648;8.908;2023-04-25T13:31:11;10.70;99.90
11089;DHT22;5598;48.648;8.908;2023-04-25T13:33:39;11.80;99.90
11089;DHT22;5598;48.648;8.908;2023-04-25T13:36:06;12.40;99.90
11089;DHT22;5598;48.648;8.908;2023-04-25T13:38:33;12.40;99.90
11089;DHT22;5598;48.648;8.908;2023-04-25T13:41:00;12.40;99.90
11089;DHT22;5598;48.648;8.908;2023-04-25T13:43:27;11.70;99.90
11089;DHT22;5598;48.648;8.908;2023-04-25T13:45:54;11.30;99.90
11089;DHT22;5598;48.648;8.908;2023-04-25T13:48:20;11.00;99.90
11089;DHT22;5598;48.648;8.908;2023-04-25T13:50:49;11.10;99.90
11089;DHT22;5598;48.648;8.908;2023-04-25T13:53:16;11.30;99.90
11089;DHT22;5598;48.648;8.908;2023-04-25T13:55:43;11.40;99.90
11089;DHT22;5598;48.648;8.908;2023-04-25T13:58:10;11.40;99.90
11089;DHT22;5598;48.648;8.908;2023-04-25T14:00:38;11.30;99.90
11089;DHT22;5598;48.648;8.908;2023-04-25T14:03:05;11.40;99.90
11089;DHT22;5598;48.648;8.908;2023-04-25T14:05:34;11.40;99.90
11089;DHT22;5598;48.648;8.908;2023-04-25T14:08:07;11.40;99.90
11089;DHT22;5598;48.648;8.908;2023-04-25T14:10:34;11.40;99.90
11089;DHT22;5598;48.648;8.908;2023-04-25T14:13:01;11.40;99.90
11089;DHT22;5598;48.648;8.908;2023-04-25T14:15:29;11.40;99.90
11089;DHT22;5598;48.648;8.908;2023-04-25T14:17:56;11.60;99.90
11089;DHT22;5598;48.648;8.908;2023-04-25T14:20:23;11.80;99.90
11089;DHT22;5598;48.648;8.908;2023-04-25T14:22:50;11.90;99.90
11089;DHT22;5598;48.648;8.908;2023-04-25T14:25:18;12.10;99.90
11089;DHT22;5598;48.648;8.908;2023-04-25T14:27:45;12.20;99.90
11089;DHT22;5598;48.648;8.908;2023-04-25T14:30:15;12.40;99.90
11089;DHT22;5598;48.648;8.908;2023-04-25T14:32:42;12.60;99.90
11089;DHT22;5598;48.648;8.908;2023-04-25T14:35:09;12.70;99.90
11089;DHT22;5598;48.648;8.908;2023-04-25T14:37:36;12.70;99.90
11089;DHT22;5598;48.648;8.908;2023-04-25T14:40:03;12.60;99.90
11089;DHT22;5598;48.648;8.908;2023-04-25T14:42:31;12.70;99.90
11089;DHT22;5598;48.648;8.908;2023-04-25T14:44:59;12.70;99.90
11089;DHT22;5598;48.648;8.908;2023-04-25T14:47:26;12.70;99.90
11089;DHT22;5598;48.648;8.908;2023-04-25T14:49:54;12.80;99.90
11089;DHT22;5598;48.648;8.908;2023-04-25T14:52:20;12.70;99.90
11089;DHT22;5598;48.648;8.908;2023-04-25T14:54:47;12.60;99.90
11089;DHT22;5598;48.648;8.908;2023-04-25T14:57:14;12.50;99.90
11089;DHT22;5598;48.648;8.908;2023-04-25T14:59:43;12.30;99.90
11089;DHT22;5598;48.648;8.908;2023-04-25T15:02:10;11.80;99.90
11089;DHT22;5598;48.648;8.908;2023-04-25T15:04:37;11.70;99.90
11089;DHT22;5598;48.648;8.908;2023-04-25T15:07:04;11.90;99.90
11089;DHT22;5598;48.648;8.908;2023-04-25T15:09:31;12.10;99.90
11089;DHT22;5598;48.648;8.908;2023-04-25T15:11:58;12.20;99.90
11089;DHT22;5598;48.648;8.908;2023-04-25T15:14:25;12.40;99.90
11089;DHT22;5598;48.648;8.908;2023-04-25T15:16:53;12.50;99.90
11089;DHT22;5598;48.648;8.908;2023-04-25T15:19:20;12.50;99.90
11089;DHT22;5598;48.648;8.908;2023-04-25T15:21:47;12.40;99.90
11089;DHT22;5598;48.648;8.908;2023-04-25T15:24:14;12.50;99.90
11089;DHT22;5598;48.648;8.908;2023-04-25T15:26:44;12.50;99.90
11089;DHT22;5598;48.648;8.908;2023-04-25T15:29:11;12.10;99.90
11089;DHT22;5598;48.648;8.908;2023-04-25T15:31:38;11.90;99.90
11089;DHT22;5598;48.648;8.908;2023-04-25T15:34:09;11.80;99.90
11089;DHT22;5598;48.648;8.908;2023-04-25T15:36:36;11.60;99.90
11089;DHT22;5598;48.648;8.908;2023-04-25T15:39:03;11.30;99.90
11089;DHT22;5598;48.648;8.908;2023-04-25T15:41:30;11.30;99.90
11089;DHT22;5598;48.648;8.908;2023-04-25T15:43:59;11.40;99.90
11089;DHT22;5598;48.648;8.908;2023-04-25T15:46:26;11.30;99.90
11089;DHT22;5598;48.648;8.908;2023-04-25T15:48:55;11.30;99.90
11089;DHT22;5598;48.648;8.908;2023-04-25T15:51:28;11.20;99.90
11089;DHT22;5598;48.648;8.908;2023-04-25T15:53:56;11.10;99.90
11089;DHT22;5598;48.648;8.908;2023-04-25T15:56:23;10.90;99.90
11089;DHT22;5598;48.648;8.908;2023-04-25T15:58:49;10.90;99.90
11089;DHT22;5598;48.648;8.908;2023-04-25T16:01:17;10.90;99.90
11089;DHT22;5598;48.648;8.908;2023-04-25T16:03:43;11.00;99.90